• Join FlightAware (Why Join?)
  • Login
  • US Flag 
07:46AM EST


 

Airport Tracker/Info


-or-


 

Live Flight TrackerFlight Track Log ✈ DAL3974 ✈ 19-Apr-2013 ✈ KDTW - KMHT

Flight Track Log - Related Links

Times and Time Zones

All times are in EDT time to prevent confusion due to time zone crossing. See the DAL3974 flight status page for this flight to view local times or setup timezone preferences in your user account.

Time Position Orientation Groundspeed Altitude Reporting Facility
EDT Latitude Longitude Course Direction KTS MPH feet Rate Location/Type
09:50PM 42.1981 -83.3542 94° East 155 178 1,900  Level FAA TRACON SMA TRACON (SMA)
09:51PM 42.1842 -83.3506 169° South 173 199 2,600 2,340 Climbing FAA TRACON SMA TRACON (SMA)
09:51PM 42.1661 -83.3450 167° South 190 219 3,500 2,460 Climbing FAA TRACON SMA TRACON (SMA)
09:51PM 42.1528 -83.3417 169° South 203 234 4,200 1,800 Climbing FAA TRACON SMA TRACON (SMA)
09:52PM 42.1311 -83.3356 168° South 219 252 4,700 1,920 Climbing FAA TRACON SMA TRACON (SMA)
09:52PM 42.1053 -83.3258 164° South 262 302 5,500 2,220 Climbing FAA TRACON SMA TRACON (SMA)
09:52PM 42.0883 -83.3036 136° Southeast 283 326 6,200 2,400 Climbing FAA TRACON SMA TRACON (SMA)
09:53PM 42.2887 -82.8697 74° East  Level FlightAware Approximate
09:53PM 42.0822 -83.2706 104° East 301 346 7,100  Level FAA TRACON SMA TRACON (SMA)
09:53PM 42.0817 -83.2269 91° East 307 353 8,000 2,220 Climbing FAA TRACON SMA TRACON (SMA)
09:53PM 42.0889 -83.1928 74° East 327 376 8,600 2,100 Climbing FAA TRACON SMA TRACON (SMA)
09:54PM 42.3169 -82.7070 78° East  Level FlightAware Approximate
09:54PM 42.1042 -83.1561 61° Northeast 316 364 9,400  Level FAA TRACON SMA TRACON (SMA)
09:54PM 42.1178 -83.1203 63° Northeast 320 368 10,200 1,860 Climbing FAA TRACON SMA TRACON (SMA)
09:54PM 42.1306 -83.0875 62° Northeast 322 371 10,700 1,020 Climbing FAA TRACON SMA TRACON (SMA)
09:55PM 42.3401 -82.5430 77° East  Level FlightAware Approximate
09:55PM 42.1481 -83.0422 62° Northeast 362 417 10,900  Level FAA TRACON SMA TRACON (SMA)
09:55PM 42.1625 -83.0044 63° Northeast 375 432 11,100 900 Climbing FAA TRACON SMA TRACON (SMA)
09:55PM 42.1775 -82.9650 63° Northeast 386 444 11,500 1,500 Climbing FAA TRACON SMA TRACON (SMA)
09:56PM 42.3631 -82.3842 94° East  Level FlightAware Approximate
09:56PM 42.1964 -82.9144 63° Northeast 391 450 12,100  Level FAA TRACON SMA TRACON (SMA)
09:56PM 42.2119 -82.8736 63° Northeast 397 457 12,700 1,500 Climbing FAA TRACON SMA TRACON (SMA)
09:56PM 42.2278 -82.8322 63° Northeast 401 461 13,100 1,500 Climbing FAA TRACON SMA TRACON (SMA)
09:57PM 42.2472 -82.7794 64° Northeast 407 468 13,700 1,560 Climbing FAA TRACON SMA TRACON (SMA)
09:57PM 42.2631 -82.7372 63° Northeast 410 472 14,200 1,320 Climbing FAA TRACON SMA TRACON (SMA)
09:57PM 42.2789 -82.6942 64° Northeast 413 475 14,600 1,500 Climbing FAA TRACON SMA TRACON (SMA)
09:58PM 42.2867 -82.6350 80° East 418 481 15,200 1,620 Climbing FAA TRACON SMA TRACON (SMA)
09:58PM 42.2875 -82.5872 89° East 414 476 15,700 1,500 Climbing FAA TRACON SMA TRACON (SMA)
09:58PM 42.2861 -82.5392 92° East 417 480 16,200 1,500 Climbing FAA TRACON SMA TRACON (SMA)
09:59PM 42.2856 -82.4786 91° East 419 482 16,700 1,320 Climbing FAA TRACON SMA TRACON (SMA)
09:59PM 42.2847 -82.4297 91° East 421 484 17,100 1,140 Climbing FAA TRACON SMA TRACON (SMA)
09:59PM 42.2842 -82.3806 91° East 424 488 17,500 1,620 Climbing FAA TRACON SMA TRACON (SMA)
10:00PM 42.2836 -82.3189 91° East 426 490 18,200 1,680 Climbing FAA TRACON SMA TRACON (SMA)
10:00PM 42.2828 -82.2692 91° East 428 493 18,600 1,200 Climbing FAA TRACON SMA TRACON (SMA)
10:00PM 42.2822 -82.2197 91° East 429 494 19,000 1,200 Climbing FAA TRACON SMA TRACON (SMA)
10:01PM 42.2817 -82.1700 91° East 430 495 19,400 1,020 Climbing FAA TRACON SMA TRACON (SMA)
10:01PM 42.2789 -82.1239 95° East 423 487 19,700 1,080 Climbing Cleveland Center
10:02PM 42.2769 -81.9611 91° East 433 498 20,900 900 Climbing Cleveland Center
10:03PM 42.2725 -81.7925 92° East 444 511 21,500 540 Climbing Cleveland Center
10:04PM 42.2700 -81.6186 91° East 456 525 22,000 480 Climbing Cleveland Center
10:05PM 42.2653 -81.4250 92° East 464 534 22,500 480 Climbing Cleveland Center
10:06PM 42.2625 -81.2453 91° East 475 547 23,000 480 Climbing Cleveland Center
10:07PM 42.2569 -81.0600 92° East 480 552 23,500 480 Climbing Cleveland Center
10:08PM 42.2514 -80.8778 92° East 480 552 24,000 540 Climbing Cleveland Center
10:09PM 42.2475 -80.6953 92° East 480 552 24,600 540 Climbing Cleveland Center
10:10PM 42.2392 -80.5103 93° East 486 559 25,100 480 Climbing Cleveland Center
10:11PM 42.2347 -80.3253 92° East 486 559 25,600 420 Climbing Cleveland Center
10:12PM 42.2261 -80.1625 94° East 486 559 26,000 420 Climbing Cleveland Center
10:13PM 42.2231 -79.9831 91° East 486 559 26,500 540 Climbing Cleveland Center
10:14PM 42.2158 -79.8039 93° East 480 552 27,100 480 Climbing Cleveland Center
10:15PM 42.2103 -79.6272 92° East 480 552 27,500 480 Climbing Cleveland Center
10:16PM 42.2025 -79.4508 93° East 474 545 28,100 540 Climbing Cleveland Center
10:17PM 42.1944 -79.2744 93° East 474 545 28,600 420 Climbing Cleveland Center
10:18PM 42.1922 -79.1033 91° East 469 540 29,000 420 Climbing Cleveland Center
10:19PM 42.2128 -78.9236 81° East 464 534 29,500 480 Climbing Cleveland Center
10:20PM 42.2389 -78.7322 79° East 469 540 30,000 540 Climbing Cleveland Center
10:21PM 42.2611 -78.5575 80° East 469 540 30,600 480 Climbing Cleveland Center
10:22PM 42.2811 -78.3997 80° East 469 540 31,000 180 Climbing Cleveland Center
10:23PM 42.3006 -78.2278 81° East 469 540 31,000  Level Cleveland Center
10:24PM 42.3219 -78.0528 81° East 469 540 31,000  Level Cleveland Center
10:25PM 42.3431 -77.8750 81° East 469 540 31,000  Level Cleveland Center
10:26PM 42.3636 -77.6969 81° East 469 540 31,000  Level Cleveland Center
10:27PM 42.3842 -77.5189 81° East 469 540 31,000  Level Cleveland Center
10:29PM 42.4250 -77.1636 81° East 473 544 31,000  Level Boston Center
10:30PM 42.4450 -76.9792 82° East 480 552 31,000  Level Boston Center
10:31PM 42.4647 -76.8003 81° East 480 552 31,000  Level Boston Center
10:32PM 42.4839 -76.6186 82° East 480 552 31,000  Level Boston Center
10:33PM 42.5031 -76.4397 82° East 480 552 31,000  Level Boston Center
10:34PM 42.5217 -76.2606 82° East 480 552 31,000  Level Boston Center
10:35PM 42.5372 -76.1036 82° East 480 552 31,000  Level Boston Center
10:36PM 42.5553 -75.9269 82° East 480 552 31,000 -240 Level Boston Center
10:37PM 42.5711 -75.7444 83° East 480 552 30,600 -900 Descending Boston Center
10:38PM 42.5889 -75.5650 82° East 480 552 29,300 -840 Descending Boston Center
10:39PM 42.6083 -75.3797 82° East 485 558 29,000 -180 Descending Boston Center
10:40PM 42.6258 -75.1772 83° East 485 558 29,000  Level Boston Center
10:41PM 42.6425 -74.9975 83° East 480 552 29,000  Level Boston Center
10:42PM 42.6589 -74.8203 83° East 480 552 29,000  Level Boston Center
10:43PM 42.6753 -74.6344 83° East 480 552 29,000  Level Boston Center
10:44PM 42.6889 -74.4542 84° East 480 552 29,000 -600 Level Boston Center
10:45PM 42.7067 -74.2739 82° East 480 552 27,900 -1,260 Descending Boston Center
10:46PM 42.7217 -74.0961 83° East 480 552 26,500 -1,200 Descending Boston Center
10:47PM 42.7367 -73.9242 83° East 474 545 25,500 -1,080 Descending Boston Center
10:48PM 42.7492 -73.7464 84° East 469 540 24,400 -1,080 Descending Boston Center
10:49PM 42.7572 -73.5967 86° East 457 526 23,400 -1,080 Descending Boston Center
10:50PM 42.7608 -73.4186 88° East 457 526 22,300 -1,140 Descending Boston Center
10:51PM 42.7686 -73.2461 86° East 457 526 21,200 -1,080 Descending Boston Center
10:52PM 42.7761 -73.0397 87° East 457 526 19,900 -1,020 Descending Boston Center
10:53PM 42.7811 -72.8531 88° East 457 526 19,000 -480 Descending Boston Center
10:54PM 42.7856 -72.6947 88° East 442 509 19,000 -960 Level Boston Center
10:55PM 42.7900 -72.5333 88° East 428 493 17,200 -2,220 Descending Boston Center
10:56PM 42.7922 -72.3836 89° East 408 470 14,700 -2,400 Descending Boston Center
10:57PM 42.8003 -72.2561 85° East 387 445 12,400 -2,100 Descending Boston Center
10:58PM 42.8250 -72.1061 77° East 366 421 10,500 -1,800 Descending Boston Center
10:59PM 42.8433 -71.9956 77° East 342 394 8,900 -1,800 Descending Boston Center
11:00PM 42.8658 -71.8536 78° East 337 388 7,000 -1,740 Descending Boston Center
11:01PM 42.8839 -71.7431 77° East 337 388 5,400 -1,740 Descending Boston Center
11:02PM 42.8997 -71.6125 81° East 331 381 3,600 -1,200 Descending Boston Center
11:03PM 42.9597 -71.5664 29° Northeast 250 288 3,000 -300 Descending Boston Center
11:04PM 43.0308 -71.6050 338° Northwest 214 246 3,000  Level Boston Center
11:05PM 43.0892 -71.5900 11° North 224 258 3,000 -180 Level Boston Center
11:06PM 43.0739 -71.5164 106° East 151 174 2,700 -300 Descending Boston Center